sensor_id;sensor_type;location;lat;lon;timestamp;P1;durP1;ratioP1;P2;durP2;ratioP2
58242;SDS011;50118;53.232;8.252;2023-10-08T00:00:25;3.95;;;2.40;;
58242;SDS011;50118;53.232;8.252;2023-10-08T00:03:09;5.30;;;2.92;;
58242;SDS011;50118;53.232;8.252;2023-10-08T00:06:02;5.30;;;2.53;;
58242;SDS011;50118;53.232;8.252;2023-10-08T00:08:31;4.95;;;2.85;;
58242;SDS011;50118;53.232;8.252;2023-10-08T00:11:25;4.95;;;2.78;;
58242;SDS011;50118;53.232;8.252;2023-10-08T00:13:58;6.10;;;2.92;;
58242;SDS011;50118;53.232;8.252;2023-10-08T00:16:26;5.80;;;3.17;;
58242;SDS011;50118;53.232;8.252;2023-10-08T00:18:53;6.53;;;3.55;;
58242;SDS011;50118;53.232;8.252;2023-10-08T00:21:23;6.90;;;3.60;;
58242;SDS011;50118;53.232;8.252;2023-10-08T00:23:52;7.47;;;3.80;;
58242;SDS011;50118;53.232;8.252;2023-10-08T00:26:24;7.35;;;3.50;;
58242;SDS011;50118;53.232;8.252;2023-10-08T00:28:58;6.72;;;3.45;;
58242;SDS011;50118;53.232;8.252;2023-10-08T00:31:25;8.05;;;4.03;;
58242;SDS011;50118;53.232;8.252;2023-10-08T00:34:02;8.27;;;4.07;;
58242;SDS011;50118;53.232;8.252;2023-10-08T00:36:30;8.50;;;4.30;;
58242;SDS011;50118;53.232;8.252;2023-10-08T00:38:56;8.70;;;4.05;;
58242;SDS011;50118;53.232;8.252;2023-10-08T00:41:25;8.18;;;4.30;;
58242;SDS011;50118;53.232;8.252;2023-10-08T00:43:57;11.25;;;4.78;;
58242;SDS011;50118;53.232;8.252;2023-10-08T00:46:24;9.15;;;4.65;;
58242;SDS011;50118;53.232;8.252;2023-10-08T00:48:58;8.45;;;4.22;;
58242;SDS011;50118;53.232;8.252;2023-10-08T00:51:45;10.40;;;4.53;;
58242;SDS011;50118;53.232;8.252;2023-10-08T00:54:24;8.50;;;4.32;;
58242;SDS011;50118;53.232;8.252;2023-10-08T00:56:53;8.30;;;4.28;;
58242;SDS011;50118;53.232;8.252;2023-10-08T00:59:22;10.48;;;4.78;;
58242;SDS011;50118;53.232;8.252;2023-10-08T01:01:50;10.05;;;4.82;;
58242;SDS011;50118;53.232;8.252;2023-10-08T01:04:17;8.18;;;4.22;;
58242;SDS011;50118;53.232;8.252;2023-10-08T01:06:47;8.50;;;4.32;;
58242;SDS011;50118;53.232;8.252;2023-10-08T01:09:19;9.90;;;4.88;;
58242;SDS011;50118;53.232;8.252;2023-10-08T01:12:06;10.55;;;4.82;;
58242;SDS011;50118;53.232;8.252;2023-10-08T01:14:44;8.35;;;4.50;;
58242;SDS011;50118;53.232;8.252;2023-10-08T01:17:15;10.32;;;4.68;;
58242;SDS011;50118;53.232;8.252;2023-10-08T01:19:50;10.38;;;4.75;;
58242;SDS011;50118;53.232;8.252;2023-10-08T01:22:21;10.35;;;4.82;;
58242;SDS011;50118;53.232;8.252;2023-10-08T01:24:50;10.80;;;4.57;;
58242;SDS011;50118;53.232;8.252;2023-10-08T01:27:16;9.15;;;4.28;;
58242;SDS011;50118;53.232;8.252;2023-10-08T01:29:52;8.13;;;4.10;;
58242;SDS011;50118;53.232;8.252;2023-10-08T01:32:18;11.52;;;4.70;;
58242;SDS011;50118;53.232;8.252;2023-10-08T01:34:45;10.30;;;4.50;;
58242;SDS011;50118;53.232;8.252;2023-10-08T01:37:14;8.73;;;4.20;;
58242;SDS011;50118;53.232;8.252;2023-10-08T01:39:47;8.10;;;3.80;;
58242;SDS011;50118;53.232;8.252;2023-10-08T01:42:15;8.48;;;3.95;;
58242;SDS011;50118;53.232;8.252;2023-10-08T01:44:46;9.82;;;4.22;;
58242;SDS011;50118;53.232;8.252;2023-10-08T01:47:14;8.90;;;4.20;;
58242;SDS011;50118;53.232;8.252;2023-10-08T01:49:41;8.75;;;4.32;;
58242;SDS011;50118;53.232;8.252;2023-10-08T01:52:09;7.43;;;3.55;;
58242;SDS011;50118;53.232;8.252;2023-10-08T01:54:42;10.10;;;4.05;;
58242;SDS011;50118;53.232;8.252;2023-10-08T01:57:09;7.93;;;4.13;;
58242;SDS011;50118;53.232;8.252;2023-10-08T01:59:35;8.75;;;3.88;;
58242;SDS011;50118;53.232;8.252;2023-10-08T02:02:03;9.15;;;4.38;;
58242;SDS011;50118;53.232;8.252;2023-10-08T02:04:30;9.25;;;4.50;;
58242;SDS011;50118;53.232;8.252;2023-10-08T02:06:58;9.10;;;4.40;;
58242;SDS011;50118;53.232;8.252;2023-10-08T02:09:24;11.10;;;4.30;;
58242;SDS011;50118;53.232;8.252;2023-10-08T02:11:51;10.63;;;4.32;;
58242;SDS011;50118;53.232;8.252;2023-10-08T02:14:21;12.20;;;4.70;;
58242;SDS011;50118;53.232;8.252;2023-10-08T02:16:48;9.52;;;4.43;;
58242;SDS011;50118;53.232;8.252;2023-10-08T02:19:21;10.48;;;4.63;;
58242;SDS011;50118;53.232;8.252;2023-10-08T02:21:52;12.23;;;4.88;;
58242;SDS011;50118;53.232;8.252;2023-10-08T02:24:21;10.75;;;4.72;;
58242;SDS011;50118;53.232;8.252;2023-10-08T02:26:50;10.38;;;4.47;;
58242;SDS011;50118;53.232;8.252;2023-10-08T02:29:17;9.68;;;4.75;;
58242;SDS011;50118;53.232;8.252;2023-10-08T02:31:42;11.13;;;4.43;;
58242;SDS011;50118;53.232;8.252;2023-10-08T02:34:08;8.73;;;4.10;;
58242;SDS011;50118;53.232;8.252;2023-10-08T02:36:37;10.38;;;4.75;;
58242;SDS011;50118;53.232;8.252;2023-10-08T02:39:05;9.75;;;4.35;;
58242;SDS011;50118;53.232;8.252;2023-10-08T02:41:49;8.50;;;4.00;;
58242;SDS011;50118;53.232;8.252;2023-10-08T02:44:15;8.55;;;3.92;;
58242;SDS011;50118;53.232;8.252;2023-10-08T02:46:45;10.23;;;4.18;;
58242;SDS011;50118;53.232;8.252;2023-10-08T02:49:14;11.43;;;4.35;;
58242;SDS011;50118;53.232;8.252;2023-10-08T02:51:51;7.75;;;3.78;;
58242;SDS011;50118;53.232;8.252;2023-10-08T02:54:20;8.90;;;4.00;;
58242;SDS011;50118;53.232;8.252;2023-10-08T02:56:49;9.60;;;4.20;;
58242;SDS011;50118;53.232;8.252;2023-10-08T02:59:17;10.75;;;4.00;;
58242;SDS011;50118;53.232;8.252;2023-10-08T03:01:48;9.00;;;4.55;;
58242;SDS011;50118;53.232;8.252;2023-10-08T03:04:22;7.20;;;3.50;;
58242;SDS011;50118;53.232;8.252;2023-10-08T03:06:52;10.43;;;3.97;;
58242;SDS011;50118;53.232;8.252;2023-10-08T03:09:19;8.23;;;3.95;;
58242;SDS011;50118;53.232;8.252;2023-10-08T03:11:57;8.55;;;4.47;;
58242;SDS011;50118;53.232;8.252;2023-10-08T03:14:33;9.68;;;3.92;;
58242;SDS011;50118;53.232;8.252;2023-10-08T03:17:09;7.60;;;3.90;;
58242;SDS011;50118;53.232;8.252;2023-10-08T03:19:34;10.18;;;4.15;;
58242;SDS011;50118;53.232;8.252;2023-10-08T03:22:00;7.85;;;3.20;;
58242;SDS011;50118;53.232;8.252;2023-10-08T03:24:30;9.57;;;3.95;;
58242;SDS011;50118;53.232;8.252;2023-10-08T03:27:02;6.72;;;3.65;;
58242;SDS011;50118;53.232;8.252;2023-10-08T03:29:35;8.27;;;3.85;;
58242;SDS011;50118;53.232;8.252;2023-10-08T03:32:10;9.30;;;3.97;;
58242;SDS011;50118;53.232;8.252;2023-10-08T03:34:49;6.45;;;3.40;;
58242;SDS011;50118;53.232;8.252;2023-10-08T03:37:20;7.80;;;3.33;;
58242;SDS011;50118;53.232;8.252;2023-10-08T03:39:54;7.20;;;3.80;;
58242;SDS011;50118;53.232;8.252;2023-10-08T03:42:32;7.97;;;3.30;;
58242;SDS011;50118;53.232;8.252;2023-10-08T03:45:05;6.50;;;3.20;;
58242;SDS011;50118;53.232;8.252;2023-10-08T03:47:40;8.90;;;3.22;;
58242;SDS011;50118;53.232;8.252;2023-10-08T03:50:11;7.32;;;3.17;;
58242;SDS011;50118;53.232;8.252;2023-10-08T03:52:41;7.32;;;3.53;;
58242;SDS011;50118;53.232;8.252;2023-10-08T03:55:08;7.70;;;3.38;;
58242;SDS011;50118;53.232;8.252;2023-10-08T03:57:46;5.50;;;3.20;;
58242;SDS011;50118;53.232;8.252;2023-10-08T04:00:21;7.32;;;2.95;;
58242;SDS011;50118;53.232;8.252;2023-10-08T04:02:54;6.43;;;3.35;;
58242;SDS011;50118;53.232;8.252;2023-10-08T04:05:23;7.13;;;2.75;;
58242;SDS011;50118;53.232;8.252;2023-10-08T04:07:53;7.28;;;2.65;;
58242;SDS011;50118;53.232;8.252;2023-10-08T04:10:27;7.45;;;2.80;;
58242;SDS011;50118;53.232;8.252;2023-10-08T04:13:03;6.88;;;2.88;;
58242;SDS011;50118;53.232;8.252;2023-10-08T04:15:33;8.30;;;2.90;;
58242;SDS011;50118;53.232;8.252;2023-10-08T04:17:59;3.78;;;2.42;;
58242;SDS011;50118;53.232;8.252;2023-10-08T04:20:27;8.75;;;2.70;;
58242;SDS011;50118;53.232;8.252;2023-10-08T04:23:01;5.60;;;2.67;;
58242;SDS011;50118;53.232;8.252;2023-10-08T04:25:29;8.65;;;2.92;;
58242;SDS011;50118;53.232;8.252;2023-10-08T04:27:59;6.47;;;2.35;;
58242;SDS011;50118;53.232;8.252;2023-10-08T04:30:25;6.53;;;2.72;;
58242;SDS011;50118;53.232;8.252;2023-10-08T04:33:01;6.88;;;2.63;;
58242;SDS011;50118;53.232;8.252;2023-10-08T04:35:38;7.68;;;2.53;;
58242;SDS011;50118;53.232;8.252;2023-10-08T04:38:19;7.47;;;2.88;;
58242;SDS011;50118;53.232;8.252;2023-10-08T04:40:50;5.55;;;2.40;;
58242;SDS011;50118;53.232;8.252;2023-10-08T04:43:19;5.47;;;2.20;;
58242;SDS011;50118;53.232;8.252;2023-10-08T04:45:50;7.28;;;2.30;;
58242;SDS011;50118;53.232;8.252;2023-10-08T04:48:16;6.15;;;2.35;;
58242;SDS011;50118;53.232;8.252;2023-10-08T04:50:46;5.80;;;2.47;;
58242;SDS011;50118;53.232;8.252;2023-10-08T04:53:16;5.65;;;2.35;;
58242;SDS011;50118;53.232;8.252;2023-10-08T04:55:42;6.75;;;2.20;;
58242;SDS011;50118;53.232;8.252;2023-10-08T04:58:13;7.85;;;2.10;;
58242;SDS011;50118;53.232;8.252;2023-10-08T05:00:46;7.70;;;2.28;;
58242;SDS011;50118;53.232;8.252;2023-10-08T05:03:24;6.07;;;2.40;;
58242;SDS011;50118;53.232;8.252;2023-10-08T05:05:57;8.43;;;1.80;;
58242;SDS011;50118;53.232;8.252;2023-10-08T05:08:49;6.72;;;2.22;;
58242;SDS011;50118;53.232;8.252;2023-10-08T05:11:23;7.05;;;2.30;;
58242;SDS011;50118;53.232;8.252;2023-10-08T05:14:15;3.80;;;1.83;;
58242;SDS011;50118;53.232;8.252;2023-10-08T05:16:54;6.90;;;2.08;;
58242;SDS011;50118;53.232;8.252;2023-10-08T05:19:38;5.57;;;2.28;;
58242;SDS011;50118;53.232;8.252;2023-10-08T05:22:21;5.30;;;2.05;;
58242;SDS011;50118;53.232;8.252;2023-10-08T05:24:53;6.50;;;1.92;;
58242;SDS011;50118;53.232;8.252;2023-10-08T05:27:40;7.80;;;2.05;;
58242;SDS011;50118;53.232;8.252;2023-10-08T05:30:13;4.95;;;1.98;;
58242;SDS011;50118;53.232;8.252;2023-10-08T05:32:53;5.93;;;1.92;;
58242;SDS011;50118;53.232;8.252;2023-10-08T05:35:32;8.07;;;2.45;;
58242;SDS011;50118;53.232;8.252;2023-10-08T05:38:10;7.70;;;2.30;;
58242;SDS011;50118;53.232;8.252;2023-10-08T05:40:55;6.25;;;2.00;;
58242;SDS011;50118;53.232;8.252;2023-10-08T05:43:22;6.75;;;2.40;;
58242;SDS011;50118;53.232;8.252;2023-10-08T05:46:12;5.65;;;1.95;;
58242;SDS011;50118;53.232;8.252;2023-10-08T05:48:44;8.20;;;1.90;;
58242;SDS011;50118;53.232;8.252;2023-10-08T05:51:27;10.30;;;2.40;;
58242;SDS011;50118;53.232;8.252;2023-10-08T05:54:11;7.50;;;2.00;;
58242;SDS011;50118;53.232;8.252;2023-10-08T05:56:57;8.45;;;1.90;;
58242;SDS011;50118;53.232;8.252;2023-10-08T05:59:50;7.90;;;2.20;;
58242;SDS011;50118;53.232;8.252;2023-10-08T06:02:28;5.57;;;1.88;;
58242;SDS011;50118;53.232;8.252;2023-10-08T06:04:58;7.05;;;2.17;;
58242;SDS011;50118;53.232;8.252;2023-10-08T06:07:51;7.35;;;2.20;;
58242;SDS011;50118;53.232;8.252;2023-10-08T06:10:17;9.32;;;2.30;;
58242;SDS011;50118;53.232;8.252;2023-10-08T06:12:53;6.07;;;2.00;;
58242;SDS011;50118;53.232;8.252;2023-10-08T06:15:27;5.28;;;1.70;;
58242;SDS011;50118;53.232;8.252;2023-10-08T06:18:09;8.25;;;1.90;;
58242;SDS011;50118;53.232;8.252;2023-10-08T06:20:36;5.72;;;1.85;;
58242;SDS011;50118;53.232;8.252;2023-10-08T06:23:04;8.15;;;2.00;;
58242;SDS011;50118;53.232;8.252;2023-10-08T06:25:32;4.60;;;1.88;;
58242;SDS011;50118;53.232;8.252;2023-10-08T06:28:09;9.18;;;2.38;;
58242;SDS011;50118;53.232;8.252;2023-10-08T06:30:36;8.68;;;1.95;;
58242;SDS011;50118;53.232;8.252;2023-10-08T06:33:06;6.70;;;1.90;;
58242;SDS011;50118;53.232;8.252;2023-10-08T06:35:34;4.47;;;1.70;;
58242;SDS011;50118;53.232;8.252;2023-10-08T06:38:01;7.60;;;2.10;;
58242;SDS011;50118;53.232;8.252;2023-10-08T06:40:35;6.22;;;1.65;;
58242;SDS011;50118;53.232;8.252;2023-10-08T06:43:03;6.28;;;2.00;;
58242;SDS011;50118;53.232;8.252;2023-10-08T06:45:58;5.90;;;1.92;;
58242;SDS011;50118;53.232;8.252;2023-10-08T06:48:24;4.80;;;2.35;;
58242;SDS011;50118;53.232;8.252;2023-10-08T06:50:50;15.75;;;8.30;;
58242;SDS011;50118;53.232;8.252;2023-10-08T06:53:22;10.43;;;3.40;;
58242;SDS011;50118;53.232;8.252;2023-10-08T06:55:48;9.40;;;3.97;;
58242;SDS011;50118;53.232;8.252;2023-10-08T06:58:20;11.77;;;5.57;;
58242;SDS011;50118;53.232;8.252;2023-10-08T07:00:45;6.95;;;2.05;;
58242;SDS011;50118;53.232;8.252;2023-10-08T07:03:15;9.63;;;3.08;;
58242;SDS011;50118;53.232;8.252;2023-10-08T07:05:43;9.32;;;3.90;;
58242;SDS011;50118;53.232;8.252;2023-10-08T07:08:20;8.82;;;3.55;;
58242;SDS011;50118;53.232;8.252;2023-10-08T07:10:48;6.65;;;2.60;;
58242;SDS011;50118;53.232;8.252;2023-10-08T07:13:18;10.55;;;4.40;;
58242;SDS011;50118;53.232;8.252;2023-10-08T07:15:45;8.32;;;2.90;;
58242;SDS011;50118;53.232;8.252;2023-10-08T07:18:11;5.72;;;2.28;;
58242;SDS011;50118;53.232;8.252;2023-10-08T07:20:46;7.55;;;2.30;;
58242;SDS011;50118;53.232;8.252;2023-10-08T07:23:18;5.90;;;1.80;;
58242;SDS011;50118;53.232;8.252;2023-10-08T07:25:45;4.10;;;1.60;;
58242;SDS011;50118;53.232;8.252;2023-10-08T07:28:17;6.50;;;1.70;;
58242;SDS011;50118;53.232;8.252;2023-10-08T07:30:44;6.95;;;2.08;;
58242;SDS011;50118;53.232;8.252;2023-10-08T07:33:10;8.30;;;2.60;;
58242;SDS011;50118;53.232;8.252;2023-10-08T07:35:46;7.07;;;2.72;;
58242;SDS011;50118;53.232;8.252;2023-10-08T07:38:38;8.50;;;2.17;;
58242;SDS011;50118;53.232;8.252;2023-10-08T07:41:07;5.10;;;1.92;;
58242;SDS011;50118;53.232;8.252;2023-10-08T07:43:33;7.03;;;2.30;;
58242;SDS011;50118;53.232;8.252;2023-10-08T07:46:00;9.32;;;2.42;;
58242;SDS011;50118;53.232;8.252;2023-10-08T07:48:26;6.78;;;2.30;;
58242;SDS011;50118;53.232;8.252;2023-10-08T07:50:55;7.68;;;2.72;;
58242;SDS011;50118;53.232;8.252;2023-10-08T07:53:22;6.35;;;2.40;;
58242;SDS011;50118;53.232;8.252;2023-10-08T07:56:01;5.70;;;1.80;;
58242;SDS011;50118;53.232;8.252;2023-10-08T07:58:34;5.32;;;1.60;;
58242;SDS011;50118;53.232;8.252;2023-10-08T08:01:05;8.88;;;2.00;;
58242;SDS011;50118;53.232;8.252;2023-10-08T08:03:41;6.25;;;1.83;;
58242;SDS011;50118;53.232;8.252;2023-10-08T08:06:07;7.85;;;1.70;;
58242;SDS011;50118;53.232;8.252;2023-10-08T08:08:36;7.03;;;1.70;;
58242;SDS011;50118;53.232;8.252;2023-10-08T08:11:02;6.35;;;1.80;;
58242;SDS011;50118;53.232;8.252;2023-10-08T08:13:31;6.25;;;1.55;;
58242;SDS011;50118;53.232;8.252;2023-10-08T08:15:58;6.03;;;1.50;;
58242;SDS011;50118;53.232;8.252;2023-10-08T08:18:34;5.15;;;1.55;;
58242;SDS011;50118;53.232;8.252;2023-10-08T08:21:01;4.45;;;1.42;;
58242;SDS011;50118;53.232;8.252;2023-10-08T08:23:27;6.03;;;1.80;;
58242;SDS011;50118;53.232;8.252;2023-10-08T08:25:54;5.38;;;1.60;;
58242;SDS011;50118;53.232;8.252;2023-10-08T08:31:03;6.47;;;1.50;;
58242;SDS011;50118;53.232;8.252;2023-10-08T08:33:30;8.43;;;1.80;;
58242;SDS011;50118;53.232;8.252;2023-10-08T08:36:16;4.63;;;1.58;;
58242;SDS011;50118;53.232;8.252;2023-10-08T08:38:41;5.30;;;1.70;;
58242;SDS011;50118;53.232;8.252;2023-10-08T08:41:08;4.45;;;1.33;;
58242;SDS011;50118;53.232;8.252;2023-10-08T08:43:37;6.45;;;1.85;;
58242;SDS011;50118;53.232;8.252;2023-10-08T08:46:09;6.20;;;1.80;;
58242;SDS011;50118;53.232;8.252;2023-10-08T08:48:39;6.55;;;1.70;;
58242;SDS011;50118;53.232;8.252;2023-10-08T08:51:05;5.47;;;1.58;;
58242;SDS011;50118;53.232;8.252;2023-10-08T08:53:32;6.82;;;1.83;;
58242;SDS011;50118;53.232;8.252;2023-10-08T08:55:59;7.35;;;1.70;;
58242;SDS011;50118;53.232;8.252;2023-10-08T08:58:29;6.50;;;1.70;;
58242;SDS011;50118;53.232;8.252;2023-10-08T09:00:59;4.40;;;1.60;;
58242;SDS011;50118;53.232;8.252;2023-10-08T09:03:26;7.22;;;1.55;;
58242;SDS011;50118;53.232;8.252;2023-10-08T09:05:57;7.57;;;1.70;;
58242;SDS011;50118;53.232;8.252;2023-10-08T09:08:27;4.60;;;1.40;;
58242;SDS011;50118;53.232;8.252;2023-10-08T09:10:58;6.13;;;1.50;;
58242;SDS011;50118;53.232;8.252;2023-10-08T09:13:29;9.02;;;1.60;;
58242;SDS011;50118;53.232;8.252;2023-10-08T09:16:29;6.63;;;1.67;;
58242;SDS011;50118;53.232;8.252;2023-10-08T09:18:48;6.43;;;1.35;;
58242;SDS011;50118;53.232;8.252;2023-10-08T09:21:15;5.60;;;1.40;;
58242;SDS011;50118;53.232;8.252;2023-10-08T09:23:44;4.97;;;1.30;;
58242;SDS011;50118;53.232;8.252;2023-10-08T09:26:18;5.18;;;1.40;;
58242;SDS011;50118;53.232;8.252;2023-10-08T09:28:48;5.40;;;1.17;;
58242;SDS011;50118;53.232;8.252;2023-10-08T09:31:14;6.18;;;1.45;;
58242;SDS011;50118;53.232;8.252;2023-10-08T09:33:42;3.80;;;1.20;;
58242;SDS011;50118;53.232;8.252;2023-10-08T09:36:09;3.67;;;1.10;;
58242;SDS011;50118;53.232;8.252;2023-10-08T09:38:41;4.93;;;1.40;;
58242;SDS011;50118;53.232;8.252;2023-10-08T09:41:08;7.18;;;1.50;;
58242;SDS011;50118;53.232;8.252;2023-10-08T09:43:34;3.28;;;1.10;;
58242;SDS011;50118;53.232;8.252;2023-10-08T09:46:20;5.13;;;1.40;;
58242;SDS011;50118;53.232;8.252;2023-10-08T09:48:50;3.53;;;1.30;;
58242;SDS011;50118;53.232;8.252;2023-10-08T09:51:19;5.10;;;1.30;;
58242;SDS011;50118;53.232;8.252;2023-10-08T09:53:56;6.07;;;1.67;;
58242;SDS011;50118;53.232;8.252;2023-10-08T09:56:36;4.63;;;1.50;;
58242;SDS011;50118;53.232;8.252;2023-10-08T09:59:02;5.32;;;1.30;;
58242;SDS011;50118;53.232;8.252;2023-10-08T10:01:28;3.95;;;1.30;;
58242;SDS011;50118;53.232;8.252;2023-10-08T10:03:56;5.45;;;1.23;;
58242;SDS011;50118;53.232;8.252;2023-10-08T10:06:25;4.43;;;1.15;;
58242;SDS011;50118;53.232;8.252;2023-10-08T10:08:51;6.10;;;1.40;;
58242;SDS011;50118;53.232;8.252;2023-10-08T10:11:25;5.10;;;1.42;;
58242;SDS011;50118;53.232;8.252;2023-10-08T10:13:58;4.30;;;1.30;;
58242;SDS011;50118;53.232;8.252;2023-10-08T10:16:25;5.53;;;1.65;;
58242;SDS011;50118;53.232;8.252;2023-10-08T10:18:54;3.83;;;1.40;;
58242;SDS011;50118;53.232;8.252;2023-10-08T10:23:56;7.03;;;1.63;;
58242;SDS011;50118;53.232;8.252;2023-10-08T10:31:41;7.50;;;1.30;;
58242;SDS011;50118;53.232;8.252;2023-10-08T10:34:15;5.07;;;1.30;;
58242;SDS011;50118;53.232;8.252;2023-10-08T10:36:44;5.55;;;1.67;;
58242;SDS011;50118;53.232;8.252;2023-10-08T10:39:15;5.65;;;1.40;;
58242;SDS011;50118;53.232;8.252;2023-10-08T10:41:45;5.05;;;1.30;;
58242;SDS011;50118;53.232;8.252;2023-10-08T10:44:16;2.10;;;1.00;;
58242;SDS011;50118;53.232;8.252;2023-10-08T10:46:45;7.43;;;1.38;;
58242;SDS011;50118;53.232;8.252;2023-10-08T10:49:37;5.55;;;1.10;;
58242;SDS011;50118;53.232;8.252;2023-10-08T10:52:13;4.65;;;1.50;;
58242;SDS011;50118;53.232;8.252;2023-10-08T10:54:44;6.13;;;1.30;;
58242;SDS011;50118;53.232;8.252;2023-10-08T10:57:24;4.82;;;1.20;;
58242;SDS011;50118;53.232;8.252;2023-10-08T10:59:52;7.30;;;1.50;;
58242;SDS011;50118;53.232;8.252;2023-10-08T11:02:20;7.30;;;1.38;;
58242;SDS011;50118;53.232;8.252;2023-10-08T11:04:55;6.68;;;1.50;;
58242;SDS011;50118;53.232;8.252;2023-10-08T11:07:32;8.73;;;1.50;;
58242;SDS011;50118;53.232;8.252;2023-10-08T11:09:59;5.30;;;1.60;;
58242;SDS011;50118;53.232;8.252;2023-10-08T11:12:24;4.82;;;1.60;;
58242;SDS011;50118;53.232;8.252;2023-10-08T11:15:07;3.17;;;1.10;;
58242;SDS011;50118;53.232;8.252;2023-10-08T11:17:40;5.22;;;1.45;;
58242;SDS011;50118;53.232;8.252;2023-10-08T11:20:22;4.13;;;1.38;;
58242;SDS011;50118;53.232;8.252;2023-10-08T11:22:50;4.28;;;1.45;;
58242;SDS011;50118;53.232;8.252;2023-10-08T11:25:22;4.63;;;1.20;;
58242;SDS011;50118;53.232;8.252;2023-10-08T11:27:51;4.22;;;1.30;;
58242;SDS011;50118;53.232;8.252;2023-10-08T11:30:24;3.70;;;1.27;;
58242;SDS011;50118;53.232;8.252;2023-10-08T11:32:50;5.25;;;1.20;;
58242;SDS011;50118;53.232;8.252;2023-10-08T11:35:15;5.25;;;1.27;;
58242;SDS011;50118;53.232;8.252;2023-10-08T11:37:44;3.88;;;1.40;;
58242;SDS011;50118;53.232;8.252;2023-10-08T11:40:25;4.68;;;1.40;;
58242;SDS011;50118;53.232;8.252;2023-10-08T11:42:55;3.63;;;1.20;;
58242;SDS011;50118;53.232;8.252;2023-10-08T11:45:28;5.05;;;1.30;;
58242;SDS011;50118;53.232;8.252;2023-10-08T11:48:03;4.13;;;1.33;;
58242;SDS011;50118;53.232;8.252;2023-10-08T11:50:37;4.32;;;2.00;;
58242;SDS011;50118;53.232;8.252;2023-10-08T11:53:03;5.18;;;1.40;;
58242;SDS011;50118;53.232;8.252;2023-10-08T11:55:35;3.42;;;1.27;;
58242;SDS011;50118;53.232;8.252;2023-10-08T11:58:06;5.53;;;1.35;;
58242;SDS011;50118;53.232;8.252;2023-10-08T12:00:38;4.18;;;1.38;;
58242;SDS011;50118;53.232;8.252;2023-10-08T12:03:11;5.28;;;1.23;;
58242;SDS011;50118;53.232;8.252;2023-10-08T12:05:37;7.05;;;1.65;;
58242;SDS011;50118;53.232;8.252;2023-10-08T12:08:12;4.47;;;1.27;;
58242;SDS011;50118;53.232;8.252;2023-10-08T12:10:41;3.45;;;1.27;;
58242;SDS011;50118;53.232;8.252;2023-10-08T12:13:08;4.85;;;1.25;;
58242;SDS011;50118;53.232;8.252;2023-10-08T12:15:35;5.95;;;1.50;;
58242;SDS011;50118;53.232;8.252;2023-10-08T12:18:04;5.25;;;1.50;;
58242;SDS011;50118;53.232;8.252;2023-10-08T12:20:34;3.95;;;1.15;;
58242;SDS011;50118;53.232;8.252;2023-10-08T12:23:02;6.90;;;1.42;;
58242;SDS011;50118;53.232;8.252;2023-10-08T12:25:32;4.13;;;1.60;;
58242;SDS011;50118;53.232;8.252;2023-10-08T12:27:59;4.18;;;1.40;;
58242;SDS011;50118;53.232;8.252;2023-10-08T12:30:29;4.85;;;1.27;;
58242;SDS011;50118;53.232;8.252;2023-10-08T12:33:00;4.72;;;1.48;;
58242;SDS011;50118;53.232;8.252;2023-10-08T12:35:26;5.25;;;1.20;;
58242;SDS011;50118;53.232;8.252;2023-10-08T12:37:54;5.20;;;1.38;;
58242;SDS011;50118;53.232;8.252;2023-10-08T12:40:21;6.65;;;1.55;;
58242;SDS011;50118;53.232;8.252;2023-10-08T12:42:50;2.55;;;1.13;;
58242;SDS011;50118;53.232;8.252;2023-10-08T12:45:16;5.93;;;1.30;;
58242;SDS011;50118;53.232;8.252;2023-10-08T12:47:49;5.55;;;1.60;;
58242;SDS011;50118;53.232;8.252;2023-10-08T12:50:17;4.27;;;1.30;;
58242;SDS011;50118;53.232;8.252;2023-10-08T12:52:48;4.90;;;1.48;;
58242;SDS011;50118;53.232;8.252;2023-10-08T12:55:19;7.30;;;1.45;;
58242;SDS011;50118;53.232;8.252;2023-10-08T12:57:52;4.30;;;1.30;;
58242;SDS011;50118;53.232;8.252;2023-10-08T13:00:21;6.78;;;1.67;;
58242;SDS011;50118;53.232;8.252;2023-10-08T13:02:48;7.05;;;1.40;;
58242;SDS011;50118;53.232;8.252;2023-10-08T13:05:18;5.78;;;1.40;;
58242;SDS011;50118;53.232;8.252;2023-10-08T13:07:53;5.45;;;1.73;;
58242;SDS011;50118;53.232;8.252;2023-10-08T13:10:24;4.63;;;1.30;;
58242;SDS011;50118;53.232;8.252;2023-10-08T13:12:51;4.40;;;1.40;;
58242;SDS011;50118;53.232;8.252;2023-10-08T13:15:16;4.82;;;1.48;;
58242;SDS011;50118;53.232;8.252;2023-10-08T13:17:42;2.70;;;1.20;;
58242;SDS011;50118;53.232;8.252;2023-10-08T13:20:13;6.10;;;1.40;;
58242;SDS011;50118;53.232;8.252;2023-10-08T13:22:42;5.90;;;1.55;;
58242;SDS011;50118;53.232;8.252;2023-10-08T13:25:08;4.82;;;1.23;;
58242;SDS011;50118;53.232;8.252;2023-10-08T13:27:36;3.90;;;1.23;;
58242;SDS011;50118;53.232;8.252;2023-10-08T13:30:07;3.90;;;1.25;;
58242;SDS011;50118;53.232;8.252;2023-10-08T13:32:35;3.25;;;1.30;;
58242;SDS011;50118;53.232;8.252;2023-10-08T13:35:04;3.58;;;1.23;;
58242;SDS011;50118;53.232;8.252;2023-10-08T13:37:31;6.70;;;1.50;;
58242;SDS011;50118;53.232;8.252;2023-10-08T13:39:58;5.03;;;1.40;;
58242;SDS011;50118;53.232;8.252;2023-10-08T13:42:24;4.47;;;1.05;;
58242;SDS011;50118;53.232;8.252;2023-10-08T13:44:52;5.38;;;1.42;;
58242;SDS011;50118;53.232;8.252;2023-10-08T13:47:18;3.58;;;1.10;;
58242;SDS011;50118;53.232;8.252;2023-10-08T13:49:47;3.55;;;1.70;;
58242;SDS011;50118;53.232;8.252;2023-10-08T13:52:15;5.60;;;1.27;;
58242;SDS011;50118;53.232;8.252;2023-10-08T13:54:42;5.30;;;1.50;;
58242;SDS011;50118;53.232;8.252;2023-10-08T13:57:15;4.07;;;1.40;;
58242;SDS011;50118;53.232;8.252;2023-10-08T13:59:43;4.18;;;1.40;;
58242;SDS011;50118;53.232;8.252;2023-10-08T14:02:13;3.20;;;1.27;;
58242;SDS011;50118;53.232;8.252;2023-10-08T14:04:40;5.40;;;1.50;;
58242;SDS011;50118;53.232;8.252;2023-10-08T14:07:12;4.82;;;1.40;;
58242;SDS011;50118;53.232;8.252;2023-10-08T14:09:44;5.32;;;1.58;;
58242;SDS011;50118;53.232;8.252;2023-10-08T14:12:10;8.10;;;1.50;;
58242;SDS011;50118;53.232;8.252;2023-10-08T14:14:38;4.85;;;1.30;;
58242;SDS011;50118;53.232;8.252;2023-10-08T14:17:09;6.07;;;1.63;;
58242;SDS011;50118;53.232;8.252;2023-10-08T14:19:40;5.05;;;1.30;;
58242;SDS011;50118;53.232;8.252;2023-10-08T14:22:11;2.85;;;1.40;;
58242;SDS011;50118;53.232;8.252;2023-10-08T14:24:40;5.65;;;1.38;;
58242;SDS011;50118;53.232;8.252;2023-10-08T14:27:05;4.88;;;1.33;;
58242;SDS011;50118;53.232;8.252;2023-10-08T14:29:40;5.57;;;1.52;;
58242;SDS011;50118;53.232;8.252;2023-10-08T14:32:09;4.95;;;1.63;;
58242;SDS011;50118;53.232;8.252;2023-10-08T14:34:35;5.70;;;1.30;;
58242;SDS011;50118;53.232;8.252;2023-10-08T14:37:20;6.22;;;1.50;;
58242;SDS011;50118;53.232;8.252;2023-10-08T14:40:04;4.82;;;1.40;;
58242;SDS011;50118;53.232;8.252;2023-10-08T14:42:49;6.63;;;1.50;;
58242;SDS011;50118;53.232;8.252;2023-10-08T14:45:24;5.57;;;1.30;;
58242;SDS011;50118;53.232;8.252;2023-10-08T14:47:52;4.85;;;1.48;;
58242;SDS011;50118;53.232;8.252;2023-10-08T14:50:20;3.38;;;1.30;;
58242;SDS011;50118;53.232;8.252;2023-10-08T14:52:47;3.78;;;1.30;;
58242;SDS011;50118;53.232;8.252;2023-10-08T14:55:13;6.35;;;1.55;;
58242;SDS011;50118;53.232;8.252;2023-10-08T14:57:39;4.50;;;1.38;;
58242;SDS011;50118;53.232;8.252;2023-10-08T15:00:05;4.07;;;1.40;;
58242;SDS011;50118;53.232;8.252;2023-10-08T15:02:31;3.60;;;1.08;;
58242;SDS011;50118;53.232;8.252;2023-10-08T15:04:58;4.10;;;1.38;;
58242;SDS011;50118;53.232;8.252;2023-10-08T15:07:26;3.85;;;1.30;;
58242;SDS011;50118;53.232;8.252;2023-10-08T15:09:53;3.80;;;1.70;;
58242;SDS011;50118;53.232;8.252;2023-10-08T15:12:22;6.95;;;1.45;;
58242;SDS011;50118;53.232;8.252;2023-10-08T15:14:50;3.80;;;1.35;;
58242;SDS011;50118;53.232;8.252;2023-10-08T15:17:16;3.80;;;1.45;;
58242;SDS011;50118;53.232;8.252;2023-10-08T15:19:42;8.63;;;1.50;;